sensor_id;sensor_type;location;lat;lon;timestamp;P1;durP1;ratioP1;P2;durP2;ratioP2
59790;SDS011;47431;51.640;5.554;2023-11-18T00:02:21;50.22;;;30.00;;
59790;SDS011;47431;51.640;5.554;2023-11-18T00:04:47;57.47;;;32.75;;
59790;SDS011;47431;51.640;5.554;2023-11-18T00:07:12;62.97;;;31.80;;
59790;SDS011;47431;51.640;5.554;2023-11-18T00:09:38;52.72;;;29.98;;
59790;SDS011;47431;51.640;5.554;2023-11-18T00:12:03;57.38;;;33.33;;
59790;SDS011;47431;51.640;5.554;2023-11-18T00:14:29;43.97;;;28.40;;
59790;SDS011;47431;51.640;5.554;2023-11-18T00:16:54;77.53;;;33.72;;
59790;SDS011;47431;51.640;5.554;2023-11-18T00:19:20;123.30;;;42.38;;
59790;SDS011;47431;51.640;5.554;2023-11-18T00:21:45;79.60;;;34.17;;
59790;SDS011;47431;51.640;5.554;2023-11-18T00:24:11;97.57;;;33.53;;
59790;SDS011;47431;51.640;5.554;2023-11-18T00:26:36;51.22;;;31.45;;
59790;SDS011;47431;51.640;5.554;2023-11-18T00:29:01;67.13;;;31.33;;
59790;SDS011;47431;51.640;5.554;2023-11-18T00:31:27;55.65;;;30.30;;
59790;SDS011;47431;51.640;5.554;2023-11-18T00:33:52;63.33;;;33.65;;
59790;SDS011;47431;51.640;5.554;2023-11-18T00:36:18;56.80;;;32.60;;
59790;SDS011;47431;51.640;5.554;2023-11-18T00:38:44;55.58;;;34.55;;
59790;SDS011;47431;51.640;5.554;2023-11-18T00:41:09;53.75;;;32.40;;
59790;SDS011;47431;51.640;5.554;2023-11-18T00:43:35;58.78;;;35.75;;
59790;SDS011;47431;51.640;5.554;2023-11-18T00:46:00;59.17;;;34.92;;
59790;SDS011;47431;51.640;5.554;2023-11-18T00:48:26;61.60;;;32.67;;
59790;SDS011;47431;51.640;5.554;2023-11-18T00:50:52;66.00;;;38.70;;
59790;SDS011;47431;51.640;5.554;2023-11-18T00:53:17;59.03;;;34.97;;
59790;SDS011;47431;51.640;5.554;2023-11-18T00:55:43;66.63;;;34.92;;
59790;SDS011;47431;51.640;5.554;2023-11-18T00:58:09;64.95;;;38.50;;
59790;SDS011;47431;51.640;5.554;2023-11-18T01:00:34;71.18;;;36.90;;
59790;SDS011;47431;51.640;5.554;2023-11-18T01:03:01;68.25;;;37.53;;
59790;SDS011;47431;51.640;5.554;2023-11-18T01:05:27;68.95;;;38.28;;
59790;SDS011;47431;51.640;5.554;2023-11-18T01:07:52;57.95;;;35.63;;
59790;SDS011;47431;51.640;5.554;2023-11-18T01:10:18;68.93;;;37.70;;
59790;SDS011;47431;51.640;5.554;2023-11-18T01:12:44;57.28;;;35.53;;
59790;SDS011;47431;51.640;5.554;2023-11-18T01:15:10;59.92;;;34.45;;
59790;SDS011;47431;51.640;5.554;2023-11-18T01:17:35;58.50;;;34.33;;
59790;SDS011;47431;51.640;5.554;2023-11-18T01:20:01;57.90;;;34.03;;
59790;SDS011;47431;51.640;5.554;2023-11-18T01:22:33;57.35;;;32.97;;
59790;SDS011;47431;51.640;5.554;2023-11-18T01:24:59;49.97;;;32.55;;
59790;SDS011;47431;51.640;5.554;2023-11-18T01:27:25;49.95;;;32.63;;
59790;SDS011;47431;51.640;5.554;2023-11-18T01:29:50;56.50;;;33.58;;
59790;SDS011;47431;51.640;5.554;2023-11-18T01:32:15;59.95;;;34.70;;
59790;SDS011;47431;51.640;5.554;2023-11-18T01:34:42;52.78;;;33.58;;
59790;SDS011;47431;51.640;5.554;2023-11-18T01:37:09;48.25;;;29.67;;
59790;SDS011;47431;51.640;5.554;2023-11-18T01:39:38;56.90;;;33.13;;
59790;SDS011;47431;51.640;5.554;2023-11-18T01:42:03;60.92;;;33.97;;
59790;SDS011;47431;51.640;5.554;2023-11-18T01:44:29;48.15;;;30.05;;
59790;SDS011;47431;51.640;5.554;2023-11-18T01:46:58;62.03;;;35.35;;
59790;SDS011;47431;51.640;5.554;2023-11-18T01:49:30;54.53;;;34.47;;
59790;SDS011;47431;51.640;5.554;2023-11-18T01:51:57;58.60;;;33.40;;
59790;SDS011;47431;51.640;5.554;2023-11-18T01:54:24;56.13;;;33.97;;
59790;SDS011;47431;51.640;5.554;2023-11-18T01:56:50;57.13;;;34.53;;
59790;SDS011;47431;51.640;5.554;2023-11-18T01:59:17;56.60;;;33.55;;
59790;SDS011;47431;51.640;5.554;2023-11-18T02:01:50;60.55;;;32.50;;
59790;SDS011;47431;51.640;5.554;2023-11-18T02:04:18;59.25;;;33.10;;
59790;SDS011;47431;51.640;5.554;2023-11-18T02:06:44;68.25;;;38.25;;
59790;SDS011;47431;51.640;5.554;2023-11-18T02:09:13;60.05;;;36.67;;
59790;SDS011;47431;51.640;5.554;2023-11-18T02:11:52;64.85;;;39.17;;
59790;SDS011;47431;51.640;5.554;2023-11-18T02:16:52;66.45;;;37.95;;
59790;SDS011;47431;51.640;5.554;2023-11-18T02:19:21;61.97;;;37.40;;
59790;SDS011;47431;51.640;5.554;2023-11-18T02:21:50;58.92;;;37.67;;
59790;SDS011;47431;51.640;5.554;2023-11-18T02:24:52;70.40;;;41.58;;
59790;SDS011;47431;51.640;5.554;2023-11-18T02:27:10;70.77;;;44.53;;
59790;SDS011;47431;51.640;5.554;2023-11-18T02:29:39;63.55;;;40.72;;
59790;SDS011;47431;51.640;5.554;2023-11-18T02:34:33;81.15;;;44.42;;
59790;SDS011;47431;51.640;5.554;2023-11-18T02:37:03;65.00;;;42.10;;
59790;SDS011;47431;51.640;5.554;2023-11-18T02:39:42;71.30;;;40.72;;
59790;SDS011;47431;51.640;5.554;2023-11-18T02:42:08;73.68;;;44.58;;
59790;SDS011;47431;51.640;5.554;2023-11-18T02:44:35;68.20;;;43.78;;
59790;SDS011;47431;51.640;5.554;2023-11-18T02:47:03;72.53;;;42.22;;
59790;SDS011;47431;51.640;5.554;2023-11-18T02:49:34;82.30;;;46.13;;
59790;SDS011;47431;51.640;5.554;2023-11-18T02:52:00;75.00;;;43.78;;
59790;SDS011;47431;51.640;5.554;2023-11-18T02:54:25;76.00;;;43.55;;
59790;SDS011;47431;51.640;5.554;2023-11-18T02:56:51;79.22;;;42.83;;
59790;SDS011;47431;51.640;5.554;2023-11-18T02:59:17;75.03;;;39.67;;
59790;SDS011;47431;51.640;5.554;2023-11-18T03:01:42;67.40;;;42.47;;
59790;SDS011;47431;51.640;5.554;2023-11-18T03:04:08;86.35;;;43.88;;
59790;SDS011;47431;51.640;5.554;2023-11-18T03:06:34;75.78;;;43.75;;
59790;SDS011;47431;51.640;5.554;2023-11-18T03:09:01;71.07;;;42.40;;
59790;SDS011;47431;51.640;5.554;2023-11-18T03:11:27;74.35;;;41.58;;
59790;SDS011;47431;51.640;5.554;2023-11-18T03:13:56;76.10;;;43.70;;
59790;SDS011;47431;51.640;5.554;2023-11-18T03:16:22;74.28;;;40.63;;
59790;SDS011;47431;51.640;5.554;2023-11-18T03:18:49;71.57;;;43.53;;
59790;SDS011;47431;51.640;5.554;2023-11-18T03:21:15;76.93;;;42.28;;
59790;SDS011;47431;51.640;5.554;2023-11-18T03:23:40;67.05;;;42.03;;
59790;SDS011;47431;51.640;5.554;2023-11-18T03:26:09;70.53;;;43.45;;
59790;SDS011;47431;51.640;5.554;2023-11-18T03:28:35;75.80;;;41.50;;
59790;SDS011;47431;51.640;5.554;2023-11-18T03:31:05;72.15;;;41.42;;
59790;SDS011;47431;51.640;5.554;2023-11-18T03:33:31;71.63;;;43.42;;
59790;SDS011;47431;51.640;5.554;2023-11-18T03:35:56;75.50;;;40.67;;
59790;SDS011;47431;51.640;5.554;2023-11-18T03:38:22;64.90;;;39.08;;
59790;SDS011;47431;51.640;5.554;2023-11-18T03:40:48;62.83;;;39.55;;
59790;SDS011;47431;51.640;5.554;2023-11-18T03:43:14;65.70;;;40.03;;
59790;SDS011;47431;51.640;5.554;2023-11-18T03:45:39;70.13;;;42.90;;
59790;SDS011;47431;51.640;5.554;2023-11-18T03:48:05;64.40;;;39.88;;
59790;SDS011;47431;51.640;5.554;2023-11-18T03:50:31;72.32;;;40.90;;
59790;SDS011;47431;51.640;5.554;2023-11-18T03:52:57;72.72;;;41.80;;
59790;SDS011;47431;51.640;5.554;2023-11-18T03:55:23;64.82;;;40.35;;
59790;SDS011;47431;51.640;5.554;2023-11-18T03:57:49;62.85;;;36.85;;
59790;SDS011;47431;51.640;5.554;2023-11-18T04:00:17;61.53;;;37.15;;
59790;SDS011;47431;51.640;5.554;2023-11-18T04:02:44;63.42;;;37.97;;
59790;SDS011;47431;51.640;5.554;2023-11-18T04:05:11;58.75;;;36.55;;
59790;SDS011;47431;51.640;5.554;2023-11-18T04:07:36;62.35;;;37.20;;
59790;SDS011;47431;51.640;5.554;2023-11-18T04:10:02;65.65;;;36.03;;
59790;SDS011;47431;51.640;5.554;2023-11-18T04:12:27;60.08;;;36.67;;
59790;SDS011;47431;51.640;5.554;2023-11-18T04:14:52;62.72;;;37.17;;
59790;SDS011;47431;51.640;5.554;2023-11-18T04:17:18;54.08;;;34.60;;
59790;SDS011;47431;51.640;5.554;2023-11-18T04:19:43;58.97;;;35.47;;
59790;SDS011;47431;51.640;5.554;2023-11-18T04:22:10;52.72;;;33.17;;
59790;SDS011;47431;51.640;5.554;2023-11-18T04:24:35;57.22;;;35.45;;
59790;SDS011;47431;51.640;5.554;2023-11-18T04:27:01;54.13;;;34.00;;
59790;SDS011;47431;51.640;5.554;2023-11-18T04:29:27;60.55;;;36.30;;
59790;SDS011;47431;51.640;5.554;2023-11-18T04:31:52;62.55;;;36.90;;
59790;SDS011;47431;51.640;5.554;2023-11-18T04:34:21;60.80;;;36.83;;
59790;SDS011;47431;51.640;5.554;2023-11-18T04:36:46;57.90;;;35.55;;
59790;SDS011;47431;51.640;5.554;2023-11-18T04:39:11;63.45;;;36.42;;
59790;SDS011;47431;51.640;5.554;2023-11-18T04:41:37;58.13;;;33.63;;
59790;SDS011;47431;51.640;5.554;2023-11-18T04:44:03;64.70;;;37.67;;
59790;SDS011;47431;51.640;5.554;2023-11-18T04:46:28;63.53;;;37.47;;
59790;SDS011;47431;51.640;5.554;2023-11-18T04:48:54;73.25;;;39.20;;
59790;SDS011;47431;51.640;5.554;2023-11-18T04:51:20;63.95;;;39.00;;
59790;SDS011;47431;51.640;5.554;2023-11-18T04:53:47;68.40;;;37.67;;
59790;SDS011;47431;51.640;5.554;2023-11-18T04:56:13;55.80;;;35.83;;
59790;SDS011;47431;51.640;5.554;2023-11-18T04:58:41;68.22;;;38.55;;
59790;SDS011;47431;51.640;5.554;2023-11-18T05:01:07;66.55;;;39.55;;
59790;SDS011;47431;51.640;5.554;2023-11-18T05:03:33;66.60;;;38.13;;
59790;SDS011;47431;51.640;5.554;2023-11-18T05:06:00;76.35;;;42.28;;
59790;SDS011;47431;51.640;5.554;2023-11-18T05:08:25;66.28;;;40.65;;
59790;SDS011;47431;51.640;5.554;2023-11-18T05:10:50;57.97;;;37.10;;
59790;SDS011;47431;51.640;5.554;2023-11-18T05:13:16;66.80;;;41.88;;
59790;SDS011;47431;51.640;5.554;2023-11-18T05:15:43;67.88;;;36.35;;
59790;SDS011;47431;51.640;5.554;2023-11-18T05:18:10;70.45;;;39.25;;
59790;SDS011;47431;51.640;5.554;2023-11-18T05:20:39;58.22;;;36.35;;
59790;SDS011;47431;51.640;5.554;2023-11-18T05:23:07;55.72;;;33.28;;
59790;SDS011;47431;51.640;5.554;2023-11-18T05:25:36;54.03;;;35.50;;
59790;SDS011;47431;51.640;5.554;2023-11-18T05:28:04;53.33;;;28.38;;
59790;SDS011;47431;51.640;5.554;2023-11-18T05:30:30;64.65;;;35.53;;
59790;SDS011;47431;51.640;5.554;2023-11-18T05:32:56;55.58;;;34.13;;
59790;SDS011;47431;51.640;5.554;2023-11-18T05:35:23;54.13;;;32.10;;
59790;SDS011;47431;51.640;5.554;2023-11-18T05:37:53;53.67;;;34.35;;
59790;SDS011;47431;51.640;5.554;2023-11-18T05:40:19;61.30;;;33.28;;
59790;SDS011;47431;51.640;5.554;2023-11-18T05:42:45;52.15;;;31.35;;
59790;SDS011;47431;51.640;5.554;2023-11-18T05:45:13;48.88;;;31.48;;
59790;SDS011;47431;51.640;5.554;2023-11-18T05:47:52;52.10;;;30.08;;
59790;SDS011;47431;51.640;5.554;2023-11-18T05:50:22;49.72;;;32.03;;
59790;SDS011;47431;51.640;5.554;2023-11-18T05:52:49;54.33;;;31.85;;
59790;SDS011;47431;51.640;5.554;2023-11-18T05:55:15;54.25;;;29.73;;
59790;SDS011;47431;51.640;5.554;2023-11-18T05:57:41;46.30;;;30.35;;
59790;SDS011;47431;51.640;5.554;2023-11-18T06:00:10;52.88;;;30.15;;
59790;SDS011;47431;51.640;5.554;2023-11-18T06:02:44;46.10;;;29.50;;
59790;SDS011;47431;51.640;5.554;2023-11-18T06:05:09;46.58;;;31.48;;
59790;SDS011;47431;51.640;5.554;2023-11-18T06:07:37;49.85;;;32.92;;
59790;SDS011;47431;51.640;5.554;2023-11-18T06:10:05;54.58;;;31.67;;
59790;SDS011;47431;51.640;5.554;2023-11-18T06:12:31;42.20;;;30.23;;
59790;SDS011;47431;51.640;5.554;2023-11-18T06:14:57;53.78;;;31.00;;
59790;SDS011;47431;51.640;5.554;2023-11-18T06:17:23;46.65;;;30.05;;
59790;SDS011;47431;51.640;5.554;2023-11-18T06:19:48;43.92;;;28.67;;
59790;SDS011;47431;51.640;5.554;2023-11-18T06:22:14;45.47;;;28.02;;
59790;SDS011;47431;51.640;5.554;2023-11-18T06:24:40;42.80;;;25.83;;
59790;SDS011;47431;51.640;5.554;2023-11-18T06:27:06;45.05;;;28.52;;
59790;SDS011;47431;51.640;5.554;2023-11-18T06:29:33;37.35;;;23.90;;
59790;SDS011;47431;51.640;5.554;2023-11-18T06:31:59;36.83;;;25.50;;
59790;SDS011;47431;51.640;5.554;2023-11-18T06:34:24;41.80;;;26.10;;
59790;SDS011;47431;51.640;5.554;2023-11-18T06:36:52;37.75;;;26.25;;
59790;SDS011;47431;51.640;5.554;2023-11-18T06:39:17;42.22;;;26.88;;
59790;SDS011;47431;51.640;5.554;2023-11-18T06:41:44;37.28;;;25.15;;
59790;SDS011;47431;51.640;5.554;2023-11-18T06:44:15;36.42;;;23.05;;
59790;SDS011;47431;51.640;5.554;2023-11-18T06:46:47;37.10;;;24.58;;
59790;SDS011;47431;51.640;5.554;2023-11-18T06:49:15;35.28;;;22.80;;
59790;SDS011;47431;51.640;5.554;2023-11-18T06:51:41;37.25;;;24.05;;
59790;SDS011;47431;51.640;5.554;2023-11-18T06:54:07;39.83;;;25.08;;
59790;SDS011;47431;51.640;5.554;2023-11-18T06:56:35;34.10;;;23.23;;
59790;SDS011;47431;51.640;5.554;2023-11-18T06:59:07;43.10;;;23.98;;
59790;SDS011;47431;51.640;5.554;2023-11-18T07:01:35;35.03;;;21.90;;
59790;SDS011;47431;51.640;5.554;2023-11-18T07:04:01;31.98;;;21.77;;
59790;SDS011;47431;51.640;5.554;2023-11-18T07:06:26;35.65;;;22.17;;
59790;SDS011;47431;51.640;5.554;2023-11-18T07:08:52;35.97;;;23.65;;
59790;SDS011;47431;51.640;5.554;2023-11-18T07:11:19;36.03;;;23.05;;
59790;SDS011;47431;51.640;5.554;2023-11-18T07:13:47;32.70;;;23.42;;
59790;SDS011;47431;51.640;5.554;2023-11-18T07:16:14;43.13;;;23.15;;
59790;SDS011;47431;51.640;5.554;2023-11-18T07:18:40;30.70;;;21.98;;
59790;SDS011;47431;51.640;5.554;2023-11-18T07:21:07;27.70;;;20.25;;
59790;SDS011;47431;51.640;5.554;2023-11-18T07:23:34;32.05;;;21.90;;
59790;SDS011;47431;51.640;5.554;2023-11-18T07:26:00;31.55;;;22.85;;
59790;SDS011;47431;51.640;5.554;2023-11-18T07:28:26;33.08;;;21.70;;
59790;SDS011;47431;51.640;5.554;2023-11-18T07:30:52;30.92;;;20.65;;
59790;SDS011;47431;51.640;5.554;2023-11-18T07:33:19;35.63;;;20.67;;
59790;SDS011;47431;51.640;5.554;2023-11-18T07:35:44;27.08;;;20.83;;
59790;SDS011;47431;51.640;5.554;2023-11-18T07:38:14;28.58;;;19.50;;
59790;SDS011;47431;51.640;5.554;2023-11-18T07:40:39;24.65;;;18.15;;
59790;SDS011;47431;51.640;5.554;2023-11-18T07:43:11;30.90;;;18.38;;
59790;SDS011;47431;51.640;5.554;2023-11-18T07:45:36;26.02;;;20.05;;
59790;SDS011;47431;51.640;5.554;2023-11-18T07:48:12;30.27;;;18.73;;
59790;SDS011;47431;51.640;5.554;2023-11-18T07:50:38;26.25;;;18.30;;
59790;SDS011;47431;51.640;5.554;2023-11-18T07:53:09;25.50;;;16.10;;
59790;SDS011;47431;51.640;5.554;2023-11-18T07:55:35;27.10;;;19.77;;
59790;SDS011;47431;51.640;5.554;2023-11-18T07:58:04;27.60;;;19.05;;
59790;SDS011;47431;51.640;5.554;2023-11-18T08:00:38;29.10;;;17.05;;
59790;SDS011;47431;51.640;5.554;2023-11-18T08:03:10;27.52;;;17.10;;
59790;SDS011;47431;51.640;5.554;2023-11-18T08:05:43;25.38;;;17.10;;
59790;SDS011;47431;51.640;5.554;2023-11-18T08:08:13;28.45;;;17.60;;
59790;SDS011;47431;51.640;5.554;2023-11-18T08:10:40;23.60;;;16.52;;
59790;SDS011;47431;51.640;5.554;2023-11-18T08:13:07;28.45;;;16.05;;
59790;SDS011;47431;51.640;5.554;2023-11-18T08:15:43;25.73;;;16.83;;
59790;SDS011;47431;51.640;5.554;2023-11-18T08:18:11;21.77;;;16.13;;
59790;SDS011;47431;51.640;5.554;2023-11-18T08:20:37;28.52;;;15.23;;
59790;SDS011;47431;51.640;5.554;2023-11-18T08:23:03;24.50;;;15.98;;
59790;SDS011;47431;51.640;5.554;2023-11-18T08:25:30;23.38;;;14.02;;
59790;SDS011;47431;51.640;5.554;2023-11-18T08:27:57;23.15;;;15.32;;
59790;SDS011;47431;51.640;5.554;2023-11-18T08:30:23;20.88;;;15.60;;
59790;SDS011;47431;51.640;5.554;2023-11-18T08:32:48;24.75;;;15.07;;
59790;SDS011;47431;51.640;5.554;2023-11-18T08:35:14;22.80;;;16.50;;
59790;SDS011;47431;51.640;5.554;2023-11-18T08:37:40;22.40;;;13.77;;
59790;SDS011;47431;51.640;5.554;2023-11-18T08:40:07;26.83;;;14.60;;
59790;SDS011;47431;51.640;5.554;2023-11-18T08:42:51;28.40;;;14.95;;
59790;SDS011;47431;51.640;5.554;2023-11-18T08:45:20;23.70;;;14.48;;
59790;SDS011;47431;51.640;5.554;2023-11-18T08:47:54;22.35;;;13.93;;
59790;SDS011;47431;51.640;5.554;2023-11-18T08:50:23;24.02;;;14.20;;
59790;SDS011;47431;51.640;5.554;2023-11-18T08:52:49;26.67;;;13.52;;
59790;SDS011;47431;51.640;5.554;2023-11-18T08:55:19;16.73;;;13.15;;
59790;SDS011;47431;51.640;5.554;2023-11-18T08:57:49;20.98;;;13.38;;
59790;SDS011;47431;51.640;5.554;2023-11-18T09:00:27;16.80;;;11.68;;
59790;SDS011;47431;51.640;5.554;2023-11-18T09:03:12;22.48;;;14.57;;
59790;SDS011;47431;51.640;5.554;2023-11-18T09:05:46;21.02;;;12.55;;
59790;SDS011;47431;51.640;5.554;2023-11-18T09:11:00;21.08;;;12.88;;
59790;SDS011;47431;51.640;5.554;2023-11-18T09:13:33;17.30;;;11.35;;
59790;SDS011;47431;51.640;5.554;2023-11-18T09:16:03;15.52;;;10.98;;
59790;SDS011;47431;51.640;5.554;2023-11-18T09:18:34;18.15;;;12.02;;
59790;SDS011;47431;51.640;5.554;2023-11-18T09:21:03;21.67;;;11.48;;
59790;SDS011;47431;51.640;5.554;2023-11-18T09:23:30;21.10;;;11.05;;
59790;SDS011;47431;51.640;5.554;2023-11-18T09:25:56;21.67;;;12.10;;
59790;SDS011;47431;51.640;5.554;2023-11-18T09:28:23;15.82;;;10.63;;
59790;SDS011;47431;51.640;5.554;2023-11-18T09:30:49;20.02;;;10.05;;
59790;SDS011;47431;51.640;5.554;2023-11-18T09:33:16;18.27;;;10.48;;
59790;SDS011;47431;51.640;5.554;2023-11-18T09:35:50;22.52;;;8.90;;
59790;SDS011;47431;51.640;5.554;2023-11-18T09:38:17;16.58;;;10.20;;
59790;SDS011;47431;51.640;5.554;2023-11-18T09:40:42;20.13;;;9.25;;
59790;SDS011;47431;51.640;5.554;2023-11-18T09:43:11;18.75;;;9.88;;
59790;SDS011;47431;51.640;5.554;2023-11-18T09:45:39;14.57;;;9.07;;
59790;SDS011;47431;51.640;5.554;2023-11-18T09:48:04;16.73;;;8.70;;
59790;SDS011;47431;51.640;5.554;2023-11-18T09:50:32;16.10;;;8.13;;
59790;SDS011;47431;51.640;5.554;2023-11-18T09:52:58;16.10;;;7.05;;
59790;SDS011;47431;51.640;5.554;2023-11-18T09:55:29;22.17;;;8.45;;
59790;SDS011;47431;51.640;5.554;2023-11-18T09:58:06;16.27;;;8.90;;
59790;SDS011;47431;51.640;5.554;2023-11-18T10:00:39;20.88;;;8.57;;
59790;SDS011;47431;51.640;5.554;2023-11-18T10:03:07;12.63;;;7.38;;
59790;SDS011;47431;51.640;5.554;2023-11-18T10:05:35;15.48;;;8.20;;
59790;SDS011;47431;51.640;5.554;2023-11-18T10:08:02;18.90;;;10.18;;
59790;SDS011;47431;51.640;5.554;2023-11-18T10:10:31;18.70;;;8.98;;
59790;SDS011;47431;51.640;5.554;2023-11-18T10:13:10;18.98;;;9.20;;
59790;SDS011;47431;51.640;5.554;2023-11-18T10:15:46;13.60;;;8.48;;
59790;SDS011;47431;51.640;5.554;2023-11-18T10:18:17;19.90;;;8.75;;
59790;SDS011;47431;51.640;5.554;2023-11-18T10:20:48;15.40;;;8.32;;
59790;SDS011;47431;51.640;5.554;2023-11-18T10:23:19;15.95;;;8.15;;
59790;SDS011;47431;51.640;5.554;2023-11-18T10:25:51;17.48;;;7.88;;
59790;SDS011;47431;51.640;5.554;2023-11-18T10:28:31;15.90;;;8.73;;
59790;SDS011;47431;51.640;5.554;2023-11-18T10:33:31;13.25;;;9.48;;
59790;SDS011;47431;51.640;5.554;2023-11-18T10:36:01;16.40;;;8.60;;
59790;SDS011;47431;51.640;5.554;2023-11-18T10:38:37;17.75;;;8.35;;
59790;SDS011;47431;51.640;5.554;2023-11-18T10:41:08;21.75;;;9.05;;
59790;SDS011;47431;51.640;5.554;2023-11-18T10:43:34;18.40;;;8.45;;
59790;SDS011;47431;51.640;5.554;2023-11-18T10:48:38;18.02;;;8.43;;
59790;SDS011;47431;51.640;5.554;2023-11-18T10:51:12;16.33;;;7.40;;
59790;SDS011;47431;51.640;5.554;2023-11-18T10:53:41;17.52;;;8.25;;
59790;SDS011;47431;51.640;5.554;2023-11-18T10:56:23;16.88;;;8.10;;
59790;SDS011;47431;51.640;5.554;2023-11-18T10:58:53;12.02;;;6.97;;
59790;SDS011;47431;51.640;5.554;2023-11-18T11:03:59;18.40;;;8.10;;
59790;SDS011;47431;51.640;5.554;2023-11-18T11:06:29;17.33;;;7.85;;
59790;SDS011;47431;51.640;5.554;2023-11-18T11:08:55;15.77;;;7.85;;
59790;SDS011;47431;51.640;5.554;2023-11-18T11:11:24;18.65;;;7.75;;
59790;SDS011;47431;51.640;5.554;2023-11-18T11:13:56;18.17;;;8.48;;
59790;SDS011;47431;51.640;5.554;2023-11-18T11:16:23;19.02;;;8.35;;
59790;SDS011;47431;51.640;5.554;2023-11-18T11:18:55;13.52;;;7.13;;
59790;SDS011;47431;51.640;5.554;2023-11-18T11:21:26;20.40;;;7.93;;
59790;SDS011;47431;51.640;5.554;2023-11-18T11:23:55;15.73;;;7.65;;
59790;SDS011;47431;51.640;5.554;2023-11-18T11:26:28;14.95;;;8.73;;
59790;SDS011;47431;51.640;5.554;2023-11-18T11:35:03;18.38;;;7.15;;
59790;SDS011;47431;51.640;5.554;2023-11-18T11:37:42;16.00;;;6.78;;
59790;SDS011;47431;51.640;5.554;2023-11-18T11:40:08;11.88;;;6.63;;
59790;SDS011;47431;51.640;5.554;2023-11-18T11:42:35;12.82;;;7.10;;
59790;SDS011;47431;51.640;5.554;2023-11-18T11:45:01;16.98;;;6.78;;
59790;SDS011;47431;51.640;5.554;2023-11-18T11:47:27;12.27;;;6.63;;
59790;SDS011;47431;51.640;5.554;2023-11-18T11:50:11;25.90;;;8.68;;
59790;SDS011;47431;51.640;5.554;2023-11-18T11:52:47;19.65;;;8.70;;
59790;SDS011;47431;51.640;5.554;2023-11-18T11:55:23;12.70;;;7.68;;
59790;SDS011;47431;51.640;5.554;2023-11-18T11:57:55;16.33;;;7.65;;
59790;SDS011;47431;51.640;5.554;2023-11-18T12:00:23;17.10;;;7.32;;
59790;SDS011;47431;51.640;5.554;2023-11-18T12:02:51;17.38;;;8.07;;
59790;SDS011;47431;51.640;5.554;2023-11-18T12:05:23;19.90;;;7.47;;
59790;SDS011;47431;51.640;5.554;2023-11-18T12:07:52;15.90;;;6.80;;
59790;SDS011;47431;51.640;5.554;2023-11-18T12:10:21;18.92;;;7.63;;
59790;SDS011;47431;51.640;5.554;2023-11-18T12:13:01;17.98;;;7.13;;
59790;SDS011;47431;51.640;5.554;2023-11-18T12:15:51;16.10;;;7.18;;
59790;SDS011;47431;51.640;5.554;2023-11-18T12:18:28;17.50;;;8.27;;
59790;SDS011;47431;51.640;5.554;2023-11-18T12:20:56;14.40;;;5.20;;
59790;SDS011;47431;51.640;5.554;2023-11-18T12:23:27;21.15;;;6.63;;
59790;SDS011;47431;51.640;5.554;2023-11-18T12:25:53;13.13;;;6.25;;
59790;SDS011;47431;51.640;5.554;2023-11-18T12:28:20;12.80;;;6.55;;
59790;SDS011;47431;51.640;5.554;2023-11-18T12:30:56;20.10;;;7.03;;
59790;SDS011;47431;51.640;5.554;2023-11-18T12:49:37;7.93;;;4.57;;
59790;SDS011;47431;51.640;5.554;2023-11-18T12:52:06;15.80;;;5.72;;
59790;SDS011;47431;51.640;5.554;2023-11-18T12:54:33;12.10;;;5.00;;
59790;SDS011;47431;51.640;5.554;2023-11-18T12:57:03;7.88;;;4.00;;
59790;SDS011;47431;51.640;5.554;2023-11-18T12:59:36;10.60;;;4.90;;
59790;SDS011;47431;51.640;5.554;2023-11-18T13:02:06;15.65;;;5.53;;
59790;SDS011;47431;51.640;5.554;2023-11-18T13:04:32;16.13;;;5.75;;
59790;SDS011;47431;51.640;5.554;2023-11-18T13:06:59;10.65;;;4.45;;
59790;SDS011;47431;51.640;5.554;2023-11-18T13:09:28;11.40;;;4.63;;
59790;SDS011;47431;51.640;5.554;2023-11-18T13:11:57;13.07;;;5.93;;
59790;SDS011;47431;51.640;5.554;2023-11-18T13:14:27;13.93;;;5.55;;
59790;SDS011;47431;51.640;5.554;2023-11-18T13:16:55;15.90;;;6.55;;
59790;SDS011;47431;51.640;5.554;2023-11-18T13:19:25;8.80;;;5.03;;
59790;SDS011;47431;51.640;5.554;2023-11-18T13:21:51;7.93;;;4.78;;
59790;SDS011;47431;51.640;5.554;2023-11-18T13:24:17;9.13;;;3.92;;
59790;SDS011;47431;51.640;5.554;2023-11-18T13:26:42;12.55;;;5.25;;
59790;SDS011;47431;51.640;5.554;2023-11-18T13:29:08;9.63;;;4.53;;
59790;SDS011;47431;51.640;5.554;2023-11-18T13:31:34;9.10;;;4.80;;
59790;SDS011;47431;51.640;5.554;2023-11-18T13:34:00;12.07;;;4.97;;
59790;SDS011;47431;51.640;5.554;2023-11-18T13:36:26;10.52;;;4.18;;
59790;SDS011;47431;51.640;5.554;2023-11-18T13:38:51;9.32;;;5.18;;
59790;SDS011;47431;51.640;5.554;2023-11-18T13:41:32;9.77;;;4.70;;
59790;SDS011;47431;51.640;5.554;2023-11-18T13:43:58;14.63;;;5.90;;
59790;SDS011;47431;51.640;5.554;2023-11-18T13:46:23;8.02;;;5.03;;
59790;SDS011;47431;51.640;5.554;2023-11-18T13:48:49;9.93;;;3.90;;
59790;SDS011;47431;51.640;5.554;2023-11-18T13:51:17;7.88;;;4.85;;
59790;SDS011;47431;51.640;5.554;2023-11-18T13:53:44;9.50;;;4.85;;
59790;SDS011;47431;51.640;5.554;2023-11-18T13:56:11;11.35;;;4.85;;
59790;SDS011;47431;51.640;5.554;2023-11-18T13:58:38;7.43;;;4.28;;
59790;SDS011;47431;51.640;5.554;2023-11-18T14:01:07;8.52;;;5.22;;
59790;SDS011;47431;51.640;5.554;2023-11-18T14:03:37;9.77;;;4.88;;
59790;SDS011;47431;51.640;5.554;2023-11-18T14:06:06;13.00;;;5.40;;
59790;SDS011;47431;51.640;5.554;2023-11-18T14:08:35;9.43;;;5.10;;
59790;SDS011;47431;51.640;5.554;2023-11-18T14:11:04;8.82;;;5.15;;
59790;SDS011;47431;51.640;5.554;2023-11-18T14:13:33;11.27;;;4.65;;
59790;SDS011;47431;51.640;5.554;2023-11-18T14:16:00;8.63;;;4.53;;
59790;SDS011;47431;51.640;5.554;2023-11-18T14:18:29;9.52;;;4.43;;
59790;SDS011;47431;51.640;5.554;2023-11-18T14:20:55;11.48;;;4.55;;
59790;SDS011;47431;51.640;5.554;2023-11-18T14:23:21;11.30;;;5.18;;
59790;SDS011;47431;51.640;5.554;2023-11-18T14:25:48;10.98;;;4.93;;
59790;SDS011;47431;51.640;5.554;2023-11-18T14:28:13;7.53;;;4.88;;
59790;SDS011;47431;51.640;5.554;2023-11-18T14:30:39;5.95;;;3.80;;
59790;SDS011;47431;51.640;5.554;2023-11-18T14:33:07;7.07;;;3.72;;
59790;SDS011;47431;51.640;5.554;2023-11-18T14:35:33;7.47;;;4.25;;
59790;SDS011;47431;51.640;5.554;2023-11-18T14:37:59;7.57;;;4.53;;
59790;SDS011;47431;51.640;5.554;2023-11-18T14:40:26;7.78;;;3.85;;
59790;SDS011;47431;51.640;5.554;2023-11-18T14:42:53;11.40;;;4.15;;
59790;SDS011;47431;51.640;5.554;2023-11-18T14:45:19;6.65;;;4.00;;
59790;SDS011;47431;51.640;5.554;2023-11-18T14:47:45;7.57;;;4.00;;
59790;SDS011;47431;51.640;5.554;2023-11-18T14:50:11;7.65;;;3.85;;
59790;SDS011;47431;51.640;5.554;2023-11-18T14:52:42;7.65;;;4.55;;
59790;SDS011;47431;51.640;5.554;2023-11-18T14:55:10;6.00;;;3.83;;
59790;SDS011;47431;51.640;5.554;2023-11-18T14:57:40;6.57;;;3.67;;
59790;SDS011;47431;51.640;5.554;2023-11-18T15:00:07;5.80;;;2.85;;
59790;SDS011;47431;51.640;5.554;2023-11-18T15:02:44;7.18;;;4.00;;
59790;SDS011;47431;51.640;5.554;2023-11-18T15:05:13;5.65;;;3.30;;
59790;SDS011;47431;51.640;5.554;2023-11-18T15:07:43;8.63;;;3.83;;
59790;SDS011;47431;51.640;5.554;2023-11-18T15:10:10;6.30;;;3.25;;
59790;SDS011;47431;51.640;5.554;2023-11-18T15:12:35;6.38;;;3.45;;